createdAt,value
2018-08-18T00:00:16.445Z,15
2018-08-18T00:01:06.736Z,15
2018-08-18T00:01:56.549Z,15
2018-08-18T00:02:46.636Z,15
2018-08-18T00:03:36.441Z,15
2018-08-18T00:04:26.473Z,15
2018-08-18T00:05:16.812Z,15
2018-08-18T00:06:06.905Z,15
2018-08-18T00:06:56.952Z,14.9
2018-08-18T00:07:47.010Z,14.9
2018-08-18T00:08:37.083Z,14.9
2018-08-18T00:09:26.866Z,14.9
2018-08-18T00:10:17.279Z,14.9
2018-08-18T00:11:06.985Z,14.9
2018-08-18T00:11:57.087Z,14.9
2018-08-18T00:12:47.404Z,14.9
2018-08-18T00:13:37.464Z,14.9
2018-08-18T00:14:27.532Z,14.9
2018-08-18T00:15:17.317Z,14.9
2018-08-18T00:16:07.658Z,14.9
2018-08-18T00:16:57.729Z,14.9
2018-08-18T00:17:47.499Z,14.9
2018-08-18T00:18:37.268Z,14.9
2018-08-18T00:37:30.815Z,14.6
2018-08-18T00:38:20.868Z,14.6
2018-08-18T00:39:10.945Z,14.6
2018-08-18T00:40:00.706Z,14.6
2018-08-18T00:40:51.050Z,14.6
2018-08-18T00:41:41.124Z,14.6
2018-08-18T00:42:30.616Z,14.6
2018-08-18T00:43:21.257Z,14.6
2018-08-18T00:44:11.317Z,14.6
2018-08-18T00:45:01.365Z,14.6
2018-08-18T00:45:51.438Z,14.6
2018-08-18T00:46:41.235Z,14.6
2018-08-18T00:47:31.565Z,14.5
2018-08-18T00:48:21.657Z,14.6
2018-08-18T00:49:11.707Z,14.5
2018-08-18T00:50:01.477Z,14.5
2018-08-18T00:50:51.894Z,14.5
2018-08-18T00:51:41.901Z,14.5
2018-08-18T00:52:31.957Z,14.5
2018-08-18T00:53:21.746Z,14.4
2018-08-18T00:54:12.130Z,14.4
2018-08-18T00:55:02.177Z,14.4
2018-08-18T00:55:52.229Z,14.4
2018-08-18T00:56:42.307Z,14.4
2018-08-18T00:57:32.062Z,14.4
2018-08-18T00:58:22.406Z,14.4
2018-08-18T00:59:12.470Z,14.4
2018-08-18T01:00:02.539Z,14.4
2018-08-18T01:00:52.314Z,14.4
2018-08-18T01:01:42.654Z,14.4
2018-08-18T01:02:32.444Z,14.4
2018-08-18T01:03:22.784Z,14.4
2018-08-18T01:04:12.568Z,14.4
2018-08-18T01:05:02.657Z,14.4
2018-08-18T01:05:52.985Z,14.4
2018-08-18T01:06:42.768Z,14.4
2018-08-18T01:07:32.828Z,14.4
2018-08-18T01:08:23.155Z,14.4
2018-08-18T01:09:13.222Z,14.4
2018-08-18T01:10:03.019Z,14.4
2018-08-18T01:10:53.725Z,14.4
2018-08-18T01:11:44.380Z,14.3
2018-08-18T01:12:34.617Z,14.3
2018-08-18T01:13:23.335Z,14.3
2018-08-18T01:14:14.132Z,14.3
2018-08-18T01:15:03.852Z,14.3
2018-08-18T01:15:53.617Z,14.3
2018-08-18T01:16:43.546Z,14.3
2018-08-18T01:17:33.582Z,14.3
2018-08-18T01:18:23.941Z,14.3
2018-08-18T01:19:13.998Z,14.3
2018-08-18T01:20:03.797Z,14.3
2018-08-18T01:20:54.148Z,14.3
2018-08-18T01:21:44.206Z,14.3
2018-08-18T01:22:33.987Z,14.3
2018-08-18T01:23:24.334Z,14.3
2018-08-18T01:24:14.399Z,14.3
2018-08-18T01:25:04.467Z,14.3
2018-08-18T01:25:54.532Z,14.3
2018-08-18T01:26:44.302Z,14.2
2018-08-18T01:27:34.666Z,14.2
2018-08-18T01:28:24.743Z,14.2
2018-08-18T01:29:14.503Z,14.2
2018-08-18T01:30:04.862Z,14.2
2018-08-18T01:30:54.916Z,14.2
2018-08-18T01:31:44.695Z,14.2
2018-08-18T01:32:35.047Z,14.2
2018-08-18T01:33:25.102Z,14.1
2018-08-18T01:34:15.182Z,14.2
2018-08-18T01:35:05.244Z,14.1
2018-08-18T01:35:55.305Z,14.1
2018-08-18T01:36:45.361Z,14.1
2018-08-18T01:37:34.862Z,14.1
2018-08-18T01:38:24.918Z,14.1
2018-08-18T01:39:15.265Z,14.1
2018-08-18T01:40:05.313Z,14.1
2018-08-18T01:40:55.680Z,14.1
2018-08-18T01:41:45.448Z,14.1
2018-08-18T01:42:35.790Z,14.1
2018-08-18T01:43:25.295Z,14.1
2018-08-18T01:44:15.927Z,14.1
2018-08-18T01:45:05.999Z,14.1
2018-08-18T01:45:55.763Z,14.1
2018-08-18T01:46:45.848Z,14
2018-08-18T01:47:36.178Z,14
2018-08-18T01:48:26.256Z,14
2018-08-18T01:49:16.315Z,14
2018-08-18T01:50:06.366Z,14
2018-08-18T01:50:56.165Z,14
2018-08-18T01:51:46.213Z,13.9
2018-08-18T01:52:36.561Z,13.9
2018-08-18T01:53:26.652Z,13.9
2018-08-18T01:54:16.716Z,13.9
2018-08-18T01:55:06.768Z,13.9
2018-08-18T01:55:56.827Z,13.9
2018-08-18T01:56:46.613Z,13.9
2018-08-18T01:57:36.959Z,13.9
2018-08-18T01:58:27.042Z,13.9
2018-08-18T01:59:17.097Z,13.9
2018-08-18T02:00:06.590Z,13.9
2018-08-18T02:00:56.934Z,13.9
2018-08-18T02:01:47.288Z,13.9
2018-08-18T02:02:37.358Z,13.8
2018-08-18T02:03:27.410Z,13.8
2018-08-18T02:04:17.219Z,13.8
2018-08-18T02:05:07.534Z,13.8
2018-08-18T02:05:57.619Z,13.8
2018-08-18T02:06:47.093Z,13.8
2018-08-18T02:07:37.741Z,13.8
2018-08-18T02:08:27.788Z,13.8
2018-08-18T02:09:17.861Z,13.8
2018-08-18T02:10:07.663Z,13.8
2018-08-18T02:10:58.003Z,13.8
2018-08-18T02:11:48.056Z,13.7
2018-08-18T02:12:37.846Z,13.8
2018-08-18T02:13:28.185Z,13.7
2018-08-18T02:14:17.975Z,13.7
2018-08-18T02:15:08.032Z,13.7
2018-08-18T02:15:58.371Z,13.7
2018-08-18T02:16:48.421Z,13.7
2018-08-18T02:17:38.500Z,13.7
2018-08-18T02:18:28.552Z,13.6
2018-08-18T02:19:18.351Z,13.6
2018-08-18T02:20:09.287Z,13.6
2018-08-18T02:20:58.747Z,13.6
2018-08-18T02:21:48.826Z,13.6
2018-08-18T02:22:38.887Z,13.6
2018-08-18T02:23:28.652Z,13.6
2018-08-18T02:24:19.033Z,13.6
2018-08-18T02:25:08.781Z,13.6
2018-08-18T02:25:58.848Z,13.6
2018-08-18T02:26:48.928Z,13.6
2018-08-18T02:27:38.994Z,13.6
2018-08-18T02:28:29.336Z,13.6
2018-08-18T02:29:19.105Z,13.5
2018-08-18T02:30:09.464Z,13.6
2018-08-18T02:30:59.242Z,13.5
2018-08-18T02:31:49.590Z,13.5
2018-08-18T02:32:39.366Z,13.5
2018-08-18T02:33:29.714Z,13.5
2018-08-18T02:34:19.786Z,13.5
2018-08-18T02:35:09.595Z,13.5
2018-08-18T02:35:59.639Z,13.5
2018-08-18T02:36:49.993Z,13.5
2018-08-18T02:37:40.066Z,13.5
2018-08-18T02:38:29.872Z,13.5
2018-08-18T02:39:20.179Z,13.5
2018-08-18T02:40:10.305Z,13.5
2018-08-18T02:41:00.012Z,13.4
2018-08-18T02:41:50.368Z,13.4
2018-08-18T02:42:40.448Z,13.4
2018-08-18T02:43:30.221Z,13.5
2018-08-18T02:44:20.557Z,13.4
2018-08-18T02:45:10.336Z,13.4
2018-08-18T02:46:00.685Z,13.4
2018-08-18T02:46:50.785Z,13.4
2018-08-18T02:47:40.806Z,13.4
2018-08-18T02:48:30.880Z,13.4
2018-08-18T02:49:20.937Z,13.4
2018-08-18T02:50:11.020Z,13.4
2018-08-18T02:51:01.067Z,13.4
2018-08-18T02:51:51.140Z,13.4
2018-08-18T02:52:41.193Z,13.4
2018-08-18T02:53:31.264Z,13.4
2018-08-18T02:54:21.311Z,13.4
2018-08-18T02:55:11.370Z,13.4
2018-08-18T02:56:01.455Z,13.4
2018-08-18T02:56:51.513Z,13.4
2018-08-18T02:57:41.693Z,13.4
2018-08-18T02:58:31.637Z,13.3
2018-08-18T02:59:21.723Z,13.4
2018-08-18T03:00:11.781Z,13.4
2018-08-18T03:01:01.817Z,13.4
2018-08-18T03:01:51.882Z,13.4
2018-08-18T03:02:41.959Z,13.3
2018-08-18T03:03:32.020Z,13.3
2018-08-18T03:04:22.079Z,13.3
2018-08-18T03:05:12.142Z,13.3
2018-08-18T03:06:02.219Z,13.3
2018-08-18T03:06:51.997Z,13.3
2018-08-18T03:07:42.428Z,13.3
2018-08-18T03:08:32.144Z,13.3
2018-08-18T03:09:22.489Z,13.3
2018-08-18T03:10:12.547Z,13.3
2018-08-18T03:11:02.347Z,13.3
2018-08-18T03:11:52.672Z,13.3
2018-08-18T03:12:42.448Z,13.3
2018-08-18T03:13:32.797Z,13.3
2018-08-18T03:14:22.590Z,13.3
2018-08-18T03:15:12.924Z,13.3
2018-08-18T03:16:02.723Z,13.3
2018-08-18T03:16:52.762Z,13.3
2018-08-18T03:17:43.127Z,13.3
2018-08-18T03:18:33.196Z,13.2
2018-08-18T03:19:22.961Z,13.2
2018-08-18T03:20:13.335Z,13.2
2018-08-18T03:21:03.101Z,13.2
2018-08-18T03:21:53.461Z,13.2
2018-08-18T03:22:43.233Z,13.1
2018-08-18T03:23:33.282Z,13.2
2018-08-18T03:24:23.366Z,13.1
2018-08-18T03:25:13.432Z,13.1
2018-08-18T03:26:03.760Z,13.1
2018-08-18T03:26:53.826Z,13.1
2018-08-18T03:27:43.881Z,13.1
2018-08-18T03:28:33.681Z,13.1
2018-08-18T03:29:23.729Z,13.1
2018-08-18T03:30:14.123Z,13.1
2018-08-18T03:31:03.871Z,13.1
2018-08-18T03:31:53.939Z,13.1
2018-08-18T03:32:43.987Z,13.1
2018-08-18T03:33:34.334Z,13.1
2018-08-18T03:34:24.387Z,13.1
2018-08-18T03:35:14.455Z,13.1
2018-08-18T03:36:04.251Z,13.1
2018-08-18T03:36:54.598Z,13.1
2018-08-18T03:37:44.632Z,13.1
2018-08-18T03:38:34.434Z,13
2018-08-18T03:39:24.772Z,13.1
2018-08-18T03:40:14.548Z,13
2018-08-18T03:41:04.632Z,13
2018-08-18T03:41:54.973Z,13
2018-08-18T03:42:45.027Z,13
2018-08-18T03:43:35.097Z,13
2018-08-18T03:44:25.163Z,13
2018-08-18T03:45:15.222Z,12.9
2018-08-18T03:46:05.022Z,12.9
2018-08-18T03:46:55.361Z,12.9
2018-08-18T03:47:45.432Z,12.9
2018-08-18T03:48:35.490Z,12.9
2018-08-18T03:49:25.567Z,12.9
2018-08-18T03:50:15.627Z,12.9
2018-08-18T03:51:05.681Z,12.9
2018-08-18T03:51:55.755Z,12.9
2018-08-18T03:52:45.833Z,12.9
2018-08-18T03:53:35.866Z,12.9
2018-08-18T03:54:25.960Z,12.9
2018-08-18T03:55:16.051Z,12.9
2018-08-18T03:56:06.068Z,12.9
2018-08-18T03:56:55.839Z,12.9
2018-08-18T03:57:46.193Z,12.9
2018-08-18T03:58:36.268Z,12.9
2018-08-18T03:59:26.052Z,12.9
2018-08-18T04:00:16.110Z,12.9
2018-08-18T04:01:05.885Z,12.9
2018-08-18T04:01:56.993Z,12.9
2018-08-18T04:02:46.603Z,12.9
2018-08-18T04:03:36.642Z,12.9
2018-08-18T04:04:26.716Z,12.9
2018-08-18T04:05:16.461Z,12.9
2018-08-18T04:06:06.837Z,12.8
2018-08-18T04:06:56.917Z,12.8
2018-08-18T04:07:46.686Z,12.8
2018-08-18T04:08:37.027Z,12.9
2018-08-18T04:09:27.165Z,12.8
2018-08-18T04:10:17.140Z,12.8
2018-08-18T04:11:06.981Z,12.8
2018-08-18T04:11:57.007Z,12.8
2018-08-18T04:12:47.361Z,12.8
2018-08-18T04:13:37.404Z,12.9
2018-08-18T04:14:27.465Z,12.9
2018-08-18T04:15:17.240Z,12.8
2018-08-18T04:16:07.320Z,12.8
2018-08-18T04:16:57.078Z,12.9
2018-08-18T04:17:47.529Z,12.8
2018-08-18T04:18:37.495Z,12.8
2018-08-18T04:19:27.843Z,12.8
2018-08-18T04:20:17.937Z,12.8
2018-08-18T04:21:08.007Z,12.8
2018-08-18T04:21:57.773Z,12.8
2018-08-18T04:22:47.835Z,12.8
2018-08-18T04:23:37.603Z,12.8
2018-08-18T04:24:28.233Z,12.8
2018-08-18T04:25:18.553Z,12.9
2018-08-18T04:26:08.089Z,12.9
2018-08-18T04:26:58.155Z,12.9
2018-08-18T04:27:48.569Z,12.9
2018-08-18T04:28:38.571Z,12.9
2018-08-18T04:29:28.626Z,12.9
2018-08-18T04:30:18.435Z,12.9
2018-08-18T04:31:08.756Z,12.9
2018-08-18T04:31:58.828Z,12.9
2018-08-18T04:32:48.932Z,12.9
2018-08-18T04:33:38.983Z,12.9
2018-08-18T04:34:29.010Z,12.9
2018-08-18T04:35:19.009Z,12.9
2018-08-18T04:36:09.150Z,12.9
2018-08-18T04:36:59.217Z,13
2018-08-18T04:37:48.993Z,13
2018-08-18T04:38:39.047Z,13
2018-08-18T04:39:29.388Z,13.1
2018-08-18T04:40:19.174Z,13.1
2018-08-18T04:41:09.237Z,13.1
2018-08-18T04:41:59.301Z,13.1
2018-08-18T04:42:49.641Z,13.2
2018-08-18T04:43:39.745Z,13.2
2018-08-18T04:44:29.781Z,13.3
2018-08-18T04:45:19.561Z,13.3
2018-08-18T04:46:09.900Z,13.3
2018-08-18T04:47:00.003Z,13.4
2018-08-18T04:47:50.050Z,13.4
2018-08-18T04:48:39.823Z,13.4
2018-08-18T05:06:48.433Z,15.3
2018-08-18T05:07:38.730Z,15.4
2018-08-18T05:08:28.799Z,15.6
2018-08-18T05:09:18.868Z,15.7
2018-08-18T05:10:08.929Z,15.9
2018-08-18T05:10:58.992Z,16
2018-08-18T05:11:49.293Z,16.1
2018-08-18T05:12:39.092Z,16.3
2018-08-18T05:13:29.161Z,16.5
2018-08-18T05:14:18.943Z,16.6
2018-08-18T05:15:09.297Z,16.8
2018-08-18T05:15:58.809Z,16.9
2018-08-18T05:16:49.253Z,17.1
2018-08-18T05:17:39.215Z,17.3
2018-08-18T05:18:28.709Z,17.5
2018-08-18T05:19:20.132Z,17.7
2018-08-18T05:20:09.699Z,17.9
2018-08-18T05:20:59.746Z,18.1
2018-08-18T05:21:49.823Z,18.3
2018-08-18T05:22:39.883Z,18.6
2018-08-18T05:23:29.657Z,18.8
2018-08-18T05:24:19.733Z,18.9
2018-08-18T05:25:09.508Z,19.2
2018-08-18T05:26:00.150Z,19.4
2018-08-18T05:26:49.925Z,19.7
2018-08-18T05:27:40.269Z,19.9
2018-08-18T05:28:30.046Z,20.2
2018-08-18T05:29:20.153Z,20.4
2018-08-18T05:30:10.470Z,20.8
2018-08-18T05:31:00.247Z,21
2018-08-18T05:31:50.595Z,21.3
2018-08-18T05:32:40.665Z,21.6
2018-08-18T05:33:30.698Z,21.8
2018-08-18T05:34:20.760Z,22.1
2018-08-18T05:35:10.821Z,22.4
2018-08-18T05:36:00.917Z,22.7
2018-08-18T05:36:50.665Z,23
2018-08-18T05:37:41.019Z,23.3
2018-08-18T05:38:31.095Z,23.6
2018-08-18T05:39:21.152Z,23.9
2018-08-18T05:40:10.928Z,24.3
2018-08-18T05:41:01.284Z,24.6
2018-08-18T05:41:51.329Z,24.9
2018-08-18T05:42:41.403Z,25.3
2018-08-18T05:43:31.475Z,25.6
2018-08-18T05:44:21.247Z,20.1
2018-08-18T05:45:11.603Z,21.4
2018-08-18T05:46:01.374Z,22.8
2018-08-18T05:46:51.711Z,23.6
2018-08-18T05:47:42.181Z,25.4
2018-08-18T05:48:31.849Z,27.4
2018-08-18T05:49:21.912Z,27.8
2018-08-18T05:50:11.973Z,27.2
2018-08-18T05:51:01.756Z,26.5
2018-08-18T05:51:52.118Z,26.1
2018-08-18T05:52:42.181Z,26
2018-08-18T05:53:32.048Z,26.3
2018-08-18T05:54:22.033Z,26.6
2018-08-18T05:55:12.381Z,26.9
2018-08-18T05:56:01.863Z,27.1
2018-08-18T05:56:52.214Z,27.1
2018-08-18T05:57:42.290Z,27.1
2018-08-18T05:58:32.631Z,27.1
2018-08-18T05:59:22.430Z,27.3
2018-08-18T06:00:12.773Z,27.3
2018-08-18T06:01:02.557Z,27.4
2018-08-18T06:01:52.608Z,27.6
2018-08-18T06:02:42.947Z,27.8
2018-08-18T06:03:33.025Z,27.9
2018-08-18T06:04:23.094Z,28
2018-08-18T06:05:12.860Z,28.1
2018-08-18T06:06:03.258Z,28.2
2018-08-18T06:06:52.994Z,28.3
2018-08-18T06:07:43.043Z,28.4
2018-08-18T06:08:33.410Z,28.6
2018-08-18T06:09:23.459Z,28.7
2018-08-18T06:10:13.511Z,28.8
2018-08-18T06:11:03.573Z,28.9
2018-08-18T06:11:53.368Z,29
2018-08-18T06:12:43.734Z,29.1
2018-08-18T06:13:33.786Z,29.3
2018-08-18T06:14:23.823Z,29.4
2018-08-18T06:15:13.919Z,29.5
2018-08-18T06:16:03.958Z,29.6
2018-08-18T06:16:53.751Z,29.8
2018-08-18T06:17:43.801Z,29.9
2018-08-18T06:18:33.883Z,30
2018-08-18T06:19:24.224Z,30.1
2018-08-18T06:20:14.019Z,30.2
2018-08-18T06:21:04.342Z,30.4
2018-08-18T06:21:53.928Z,30.5
2018-08-18T06:22:44.484Z,30.6
2018-08-18T06:23:34.603Z,30.8
2018-08-18T06:24:24.611Z,30.9
2018-08-18T06:25:14.658Z,30.9
2018-08-18T06:26:04.460Z,31.1
2018-08-18T06:26:54.811Z,31.3
2018-08-18T06:27:44.603Z,31.4
2018-08-18T06:28:34.653Z,31.5
2018-08-18T06:29:24.707Z,31.6
2018-08-18T06:30:14.213Z,31.8
2018-08-18T06:31:05.137Z,31.9
2018-08-18T06:31:55.187Z,32
2018-08-18T06:32:44.690Z,32.1
2018-08-18T06:33:35.333Z,32.3
2018-08-18T06:34:25.440Z,32.4
2018-08-18T06:35:15.470Z,32.6
2018-08-18T06:36:05.247Z,32.7
2018-08-18T06:36:55.581Z,32.8
2018-08-18T06:37:45.645Z,32.9
2018-08-18T06:38:35.136Z,33.1
2018-08-18T06:39:25.773Z,33.2
2018-08-18T06:40:15.855Z,33.4
2018-08-18T06:41:06.339Z,33.5
2018-08-18T06:41:56.577Z,33.6
2018-08-18T06:42:46.111Z,33.8
2018-08-18T06:43:35.802Z,33.9
2018-08-18T06:44:25.877Z,34.1
2018-08-18T06:45:15.924Z,34.2
2018-08-18T06:46:06.007Z,34.3
2018-08-18T06:46:56.329Z,34.4
2018-08-18T06:47:46.123Z,34.6
2018-08-18T06:48:35.905Z,34.8
2018-08-18T06:49:26.527Z,34.9
2018-08-18T06:50:16.606Z,35
2018-08-18T06:51:06.372Z,35.2
2018-08-18T06:51:56.714Z,35.3
2018-08-18T06:52:46.498Z,35.4
2018-08-18T06:53:36.603Z,35.6
2018-08-18T06:54:27.364Z,35.7
2018-08-18T06:55:18.266Z,35.8
2018-08-18T06:56:07.048Z,36
2018-08-18T06:56:57.282Z,36.1
2018-08-18T06:57:46.910Z,36.3
2018-08-18T06:58:37.243Z,36.4
2018-08-18T06:59:27.299Z,36.6
2018-08-18T07:00:17.377Z,36.7
2018-08-18T07:01:07.164Z,36.8
2018-08-18T07:01:57.516Z,36.9
2018-08-18T07:02:47.294Z,37.1
2018-08-18T07:03:37.514Z,37.3
2018-08-18T07:04:27.699Z,37.4
2018-08-18T07:05:17.774Z,37.5
2018-08-18T07:06:07.837Z,37.7
2018-08-18T07:06:57.903Z,37.8
2018-08-18T07:07:47.964Z,37.9
2018-08-18T07:08:38.018Z,38.1
2018-08-18T07:09:28.100Z,38.3
2018-08-18T07:10:18.168Z,37.8
2018-08-18T07:11:08.235Z,37.6
2018-08-18T07:11:58.011Z,37.8
2018-08-18T07:12:48.069Z,37.9
2018-08-18T07:13:38.149Z,38.1
2018-08-18T07:14:28.189Z,38.3
2018-08-18T07:15:17.995Z,38.4
2018-08-18T07:16:08.335Z,38.6
2018-08-18T07:16:58.666Z,38.7
2018-08-18T07:17:48.732Z,38.8
2018-08-18T07:18:38.843Z,38.9
2018-08-18T07:19:29.383Z,39.1
2018-08-18T07:20:18.740Z,39.3
2018-08-18T07:21:08.420Z,39.4
2018-08-18T07:21:59.056Z,39.6
2018-08-18T07:22:49.147Z,39.8
2018-08-18T07:23:39.177Z,39.9
2018-08-18T07:24:29.241Z,40.1
2018-08-18T07:25:19.303Z,40.2
2018-08-18T07:26:09.384Z,40.4
2018-08-18T07:26:59.420Z,40.6
2018-08-18T07:27:49.502Z,40.7
2018-08-18T07:28:39.896Z,40.9
2018-08-18T07:29:29.629Z,41.1
2018-08-18T07:30:19.691Z,41.2
2018-08-18T07:31:09.779Z,41.3
2018-08-18T07:31:59.542Z,41.5
2018-08-18T07:32:49.916Z,41.6
2018-08-18T07:33:40.011Z,41.8
2018-08-18T07:34:30.013Z,41.9
2018-08-18T07:35:20.069Z,42.1
2018-08-18T07:36:09.863Z,42.2
2018-08-18T07:37:00.028Z,42.4
2018-08-18T07:37:50.298Z,42.6
2018-08-18T07:38:40.364Z,42.6
2018-08-18T07:39:30.136Z,42.8
2018-08-18T07:40:20.476Z,42.9
2018-08-18T07:41:10.269Z,43.1
2018-08-18T07:42:00.617Z,43.3
2018-08-18T07:42:50.706Z,43.4
2018-08-18T07:43:40.468Z,43.5
2018-08-18T07:44:30.808Z,43.7
2018-08-18T07:45:20.876Z,43.8
2018-08-18T07:46:11.020Z,43.9
2018-08-18T07:47:00.721Z,44.1
2018-08-18T07:47:51.058Z,44.3
2018-08-18T07:48:41.132Z,44.4
2018-08-18T07:49:30.911Z,44.6
2018-08-18T07:50:21.267Z,44.7
2018-08-18T07:51:11.027Z,44.8
2018-08-18T07:52:01.094Z,44.9
2018-08-18T07:52:51.445Z,45.1
2018-08-18T07:53:41.630Z,45.3
2018-08-18T07:54:31.581Z,45.4
2018-08-18T07:55:21.375Z,45.6
2018-08-18T07:56:11.682Z,45.7
2018-08-18T07:57:01.461Z,45.9
2018-08-18T07:57:51.536Z,46
2018-08-18T07:58:41.897Z,46.1
2018-08-18T07:59:31.965Z,46.3
2018-08-18T08:00:22.024Z,46.4
2018-08-18T08:01:12.105Z,46.5
2018-08-18T08:02:02.149Z,46.6
2018-08-18T08:02:51.937Z,46.8
2018-08-18T08:03:42.271Z,46.9
2018-08-18T08:04:32.328Z,47.1
2018-08-18T08:05:22.177Z,47.2
2018-08-18T08:06:12.474Z,47.3
2018-08-18T08:07:02.550Z,47.4
2018-08-18T08:07:52.326Z,47.6
2018-08-18T08:08:42.676Z,47.6
2018-08-18T08:09:32.452Z,47.8
2018-08-18T08:10:22.786Z,47.9
2018-08-18T08:11:12.591Z,48
2018-08-18T08:12:02.959Z,48.1
2018-08-18T08:12:53.280Z,48.1
2018-08-18T08:13:43.048Z,48.1
2018-08-18T08:14:33.137Z,48.3
2018-08-18T08:15:23.204Z,48.4
2018-08-18T08:16:13.255Z,48.6
2018-08-18T08:17:03.048Z,48.7
2018-08-18T08:17:53.113Z,48.8
2018-08-18T08:18:43.463Z,48.9
2018-08-18T08:19:33.230Z,49.1
2018-08-18T08:20:23.589Z,49.1
2018-08-18T08:21:13.375Z,49.3
2018-08-18T08:22:03.730Z,49.3
2018-08-18T08:22:53.776Z,49.5
2018-08-18T08:23:43.555Z,49.6
2018-08-18T08:24:33.914Z,49.6
2018-08-18T08:25:23.971Z,49.6
2018-08-18T08:26:14.050Z,49.7
2018-08-18T08:27:04.095Z,49.8
2018-08-18T08:27:54.172Z,49.9
2018-08-18T08:28:44.237Z,50.1
2018-08-18T08:29:34.520Z,50.1
2018-08-18T08:30:24.407Z,50.3
2018-08-18T08:31:14.422Z,50.4
2018-08-18T08:32:04.466Z,50.5
2018-08-18T08:32:54.556Z,50.6
2018-08-18T08:33:44.742Z,50.7
2018-08-18T08:34:34.685Z,50.8
2018-08-18T08:35:24.464Z,50.9
2018-08-18T08:36:14.514Z,51
2018-08-18T08:37:04.867Z,51.1
2018-08-18T08:37:54.659Z,51.3
2018-08-18T08:38:45.003Z,51.4
2018-08-18T08:39:35.074Z,51.4
2018-08-18T08:40:24.876Z,51.5
2018-08-18T08:41:15.202Z,51.6
2018-08-18T08:42:05.256Z,51.8
2018-08-18T08:42:55.743Z,51.8
2018-08-18T08:44:35.452Z,52.1
2018-08-18T08:45:25.920Z,52.1
2018-08-18T08:46:15.389Z,52.3
2018-08-18T08:47:55.727Z,52.4
2018-08-18T08:48:45.495Z,52.6
2018-08-18T08:49:35.807Z,52.7
2018-08-18T08:50:26.000Z,52.8
2018-08-18T08:51:15.987Z,52.9
2018-08-18T08:52:06.059Z,53
2018-08-18T08:52:56.125Z,53.1
2018-08-18T08:53:46.276Z,53.1
2018-08-18T08:54:36.461Z,53.2
2018-08-18T08:55:25.752Z,53.3
2018-08-18T08:56:16.102Z,53.4
2018-08-18T08:57:06.644Z,53.5
2018-08-18T08:57:56.506Z,53.6
2018-08-18T08:58:46.698Z,53.6
2018-08-18T08:59:37.356Z,53.8
2018-08-18T09:00:26.702Z,53.8
2018-08-18T09:01:16.775Z,53.9
2018-08-18T09:02:06.899Z,54
2018-08-18T09:02:56.837Z,54.1
2018-08-18T09:03:46.920Z,54.2
2018-08-18T09:04:37.017Z,54.3
2018-08-18T09:21:10.828Z,55.9
2018-08-18T09:22:00.569Z,56
2018-08-18T09:22:50.648Z,56.1
2018-08-18T09:23:40.971Z,56.2
2018-08-18T09:24:30.491Z,56.3
2018-08-18T09:25:21.163Z,56.4
2018-08-18T09:26:11.423Z,56.4
2018-08-18T09:27:00.955Z,56.5
2018-08-18T09:27:51.299Z,56.6
2018-08-18T09:28:41.380Z,56.6
2018-08-18T09:29:31.432Z,56.7
2018-08-18T09:30:21.507Z,56.8
2018-08-18T09:31:11.591Z,56.8
2018-08-18T09:32:01.633Z,56.9
2018-08-18T09:32:51.704Z,57.1
2018-08-18T09:33:41.767Z,57.1
2018-08-18T09:34:31.844Z,57.2
2018-08-18T09:35:21.626Z,57.2
2018-08-18T09:36:12.182Z,57
2018-08-18T09:37:02.039Z,56.9
2018-08-18T09:37:52.107Z,56.9
2018-08-18T09:38:41.894Z,57
2018-08-18T09:39:31.949Z,57.1
2018-08-18T09:40:22.290Z,57.1
2018-08-18T09:41:12.361Z,57.2
2018-08-18T09:42:02.152Z,57.3
2018-08-18T09:42:52.487Z,57.4
2018-08-18T09:43:42.562Z,57.4
2018-08-18T09:44:32.639Z,57.6
2018-08-18T09:45:22.860Z,57.6
2018-08-18T09:47:02.824Z,57.9
2018-08-18T09:47:52.870Z,57.9
2018-08-18T09:48:42.958Z,57.9
2018-08-18T09:49:32.716Z,58.1
2018-08-18T09:50:23.055Z,58.2
2018-08-18T09:51:13.118Z,58.3
2018-08-18T09:52:03.185Z,58.4
2018-08-18T09:52:53.268Z,58.5
2018-08-18T09:54:33.385Z,58.6
2018-08-18T09:55:23.178Z,58.8
2018-08-18T09:56:13.238Z,58.9
2018-08-18T09:57:03.657Z,58.9
2018-08-18T09:57:53.657Z,58.9
2018-08-18T09:58:43.797Z,59
2018-08-18T09:59:33.786Z,59.1
2018-08-18T10:00:23.858Z,59.3
2018-08-18T10:01:13.625Z,59.3
2018-08-18T10:02:03.990Z,59.4
2018-08-18T10:02:54.056Z,59.5
2018-08-18T10:03:43.839Z,59.6
2018-08-18T10:04:34.175Z,59.7
2018-08-18T10:05:24.236Z,59.8
2018-08-18T10:06:14.400Z,59.8
2018-08-18T10:07:04.396Z,59.9
2018-08-18T10:07:54.472Z,60
2018-08-18T10:08:44.510Z,60.1
2018-08-18T10:09:34.569Z,60.1
2018-08-18T10:10:24.648Z,60.3
2018-08-18T10:11:14.713Z,60.3
2018-08-18T10:12:04.811Z,60.3
2018-08-18T10:12:54.855Z,60.4
2018-08-18T10:13:44.901Z,60.5
2018-08-18T10:14:34.957Z,60.6
2018-08-18T10:15:24.542Z,60.6
2018-08-18T10:16:15.124Z,60.7
2018-08-18T10:17:05.176Z,60.8
2018-08-18T10:17:54.956Z,60.9
2018-08-18T10:18:45.297Z,61
2018-08-18T10:19:34.793Z,61.1
2018-08-18T10:20:25.142Z,61.2
2018-08-18T10:21:15.480Z,61.2
2018-08-18T10:22:04.984Z,61.3
2018-08-18T10:22:55.623Z,61.4
2018-08-18T10:23:45.725Z,61.4
2018-08-18T10:24:35.721Z,61.5
2018-08-18T10:25:25.802Z,61.6
2018-08-18T10:26:15.588Z,61.7
2018-08-18T10:27:05.979Z,61.8
2018-08-18T10:27:56.040Z,61.8
2018-08-18T10:28:45.787Z,61.9
2018-08-18T10:29:36.127Z,62
2018-08-18T10:30:25.919Z,62.1
2018-08-18T10:31:15.969Z,62.2
2018-08-18T10:32:06.042Z,62.3
2018-08-18T10:32:56.402Z,62.3
2018-08-18T10:33:46.168Z,62.4
2018-08-18T10:34:36.513Z,62.4
2018-08-18T10:35:26.579Z,62.5
2018-08-18T10:36:16.645Z,62.6
2018-08-18T10:37:06.446Z,62.6
2018-08-18T10:37:56.796Z,62.7
2018-08-18T10:38:46.580Z,62.8
2018-08-18T10:39:36.627Z,62.9
2018-08-18T10:40:26.970Z,63
2018-08-18T10:41:17.036Z,62.9
2018-08-18T10:42:07.439Z,62.9
2018-08-18T10:42:57.191Z,62.8
2018-08-18T10:43:47.315Z,62.6
2018-08-18T10:44:37.328Z,62.3
2018-08-18T10:45:27.395Z,62.4
2018-08-18T10:46:17.453Z,62.8
2018-08-18T10:47:07.507Z,63
2018-08-18T10:47:57.576Z,63.2
2018-08-18T10:48:47.650Z,63.2
2018-08-18T10:49:37.712Z,63.3
2018-08-18T10:50:27.789Z,63.3
2018-08-18T10:51:17.565Z,63.2
2018-08-18T10:52:07.908Z,63.1
2018-08-18T10:52:57.686Z,63.3
2018-08-18T10:53:48.051Z,63.5
2018-08-18T10:54:38.117Z,63.7
2018-08-18T10:55:28.179Z,63.8
2018-08-18T10:56:18.225Z,63.8
2018-08-18T10:57:08.314Z,63.8
2018-08-18T10:57:58.086Z,63.7
2018-08-18T10:58:48.436Z,63.8
2018-08-18T10:59:38.248Z,63.9
2018-08-18T11:00:28.533Z,64.1
2018-08-18T11:01:18.603Z,64.2
2018-08-18T11:02:08.686Z,64.3
2018-08-18T11:02:58.733Z,64.4
2018-08-18T11:03:48.957Z,64.4
2018-08-18T11:04:38.866Z,64.4
2018-08-18T11:05:28.672Z,64.5
2018-08-18T11:06:19.010Z,64.5
2018-08-18T11:07:08.779Z,64.2
2018-08-18T11:07:58.846Z,64
2018-08-18T11:08:49.192Z,64.1
2018-08-18T11:09:38.977Z,64.4
2018-08-18T11:10:29.333Z,64.6
2018-08-18T11:11:19.169Z,64.8
2018-08-18T11:12:09.192Z,64.8
2018-08-18T11:12:59.524Z,64.8
2018-08-18T11:13:49.582Z,64.8
2018-08-18T11:14:39.649Z,64.9
2018-08-18T11:15:29.455Z,65
2018-08-18T11:16:19.506Z,65.1
2018-08-18T11:17:09.593Z,65.2
2018-08-18T11:17:59.947Z,65.2
2018-08-18T11:18:49.997Z,65.3
2018-08-18T11:19:40.080Z,65.4
2018-08-18T11:20:30.125Z,65.4
2018-08-18T11:21:20.200Z,65.4
2018-08-18T11:22:09.985Z,65.5
2018-08-18T11:23:00.346Z,65.6
2018-08-18T11:23:50.392Z,65.6
2018-08-18T11:24:40.454Z,65.3
2018-08-18T11:25:30.250Z,64.9
2018-08-18T11:26:20.595Z,64.6
2018-08-18T11:27:10.372Z,64.4
2018-08-18T11:28:00.453Z,64.3
2018-08-18T11:28:50.434Z,64.4
2018-08-18T11:29:40.839Z,64.8
2018-08-18T11:30:30.918Z,65.1
2018-08-18T11:31:20.986Z,65.2
2018-08-18T11:32:11.055Z,65.3
2018-08-18T11:33:01.147Z,65.3
2018-08-18T11:33:51.171Z,65.1
2018-08-18T11:34:41.260Z,64.8
2018-08-18T11:35:31.289Z,64.6
2018-08-18T11:36:21.369Z,64.8
2018-08-18T11:37:11.424Z,65.1
2018-08-18T11:38:01.506Z,65.3
2018-08-18T11:38:51.282Z,65.5
2018-08-18T11:39:41.613Z,65.6
2018-08-18T11:40:31.675Z,65.6
2018-08-18T11:41:21.752Z,65.6
2018-08-18T11:42:11.530Z,65.6
2018-08-18T11:43:01.879Z,65.7
2018-08-18T11:43:51.968Z,65.8
2018-08-18T11:44:42.006Z,65.9
2018-08-18T11:45:32.138Z,65.9
2018-08-18T11:46:21.879Z,66
2018-08-18T11:47:12.031Z,66.1
2018-08-18T11:48:02.274Z,66.1
2018-08-18T11:48:52.401Z,66.1
2018-08-18T11:49:42.148Z,66.2
2018-08-18T11:50:32.473Z,66.3
2018-08-18T11:51:22.253Z,66.3
2018-08-18T11:52:12.614Z,66.3
2018-08-18T11:53:02.679Z,66.4
2018-08-18T11:53:52.745Z,66.5
2018-08-18T11:54:42.560Z,66.5
2018-08-18T11:55:32.867Z,66.5
2018-08-18T11:56:22.947Z,66.6
2018-08-18T11:57:13.010Z,66.6
2018-08-18T11:58:03.069Z,66.6
2018-08-18T11:58:53.138Z,66.6
2018-08-18T11:59:43.217Z,66.7
2018-08-18T12:00:33.000Z,66.8
2018-08-18T12:01:23.339Z,66.8
2018-08-18T12:02:13.404Z,66.9
2018-08-18T12:03:03.462Z,66.9